Grace Hill, Iowa
Current Conditions -  °F | °C
As of 12:15 PM on Friday 28 Nov 2014 (Local Time) from KAWG Reporting Station
Clear Clear  
Wind Chill: 23°   Ceiling: Unl
Heat Index: 32°   Visibility: 10mi
Dew Point: 28°   Wind: 13mph
Humidity: 87%   Direction: 150°SSE
Pressure: 29.92"   Gusts: NA
Location:  41.3124°N, 91.7455°W
Report Text: KAWG 281815Z AUTO 15011KT 10SM CLR M00/M02 A2992 RMK AO2
Loading
Personal Weather Stations






























Interactive Weather Map New forecast layout! Learn more

10-Day Weather Forecast

Advertisements
Track Severe Weather on mobile